Otis Orchards, WA

11:24 AM PDT on April 25, 2015 (GMT -0700)
Otis Orchards | | Change Station
CLOSE
Current Station
Personal Weather Station
Location: Otis Orchards, WA
Elevation: 2065 ft
Nearby Weather Stations

Elev 2065 ft 47.70 °N, 117.10 °W | Updated 5 seconds ago

Overcast
Overcast
46.8 °F
Feels Like 47 °F
N
0.0
Wind Variable Wind from SW
Gusts 0.0 mph

Today
High -- | Low -- °F
--% Chance of Precip.
Yesterday
High -- | Low -- °F
Precip. -- in
5:41 AM 7:52 PM
Waxing Crescent, 48% visible
Pressure 29.89 in
Visibility 10.0 miles
Clouds Mostly Cloudy 2800 ft
Mostly Cloudy 3300 ft
Overcast 6000 ft
Windchill 47 °F
Dew Point 42 °F
Humidity 84%
Rainfall 0.04 in
Snow Depth Not available.
UV 2 out of 12
Pollen 9.90 out of 12
Air Quality Not available.
Flu Activity Regional
METAR KSFF 251753Z VRB03KT 10SM BKN028 BKN033 OVC060 09/03 A2988 RMK AO2 RAB38E47 SLP120 P0000 60000 T00940028 10094 20033 50002

More Conditions Fewer Conditions

Pressure 29.89 in
Visibility 10.0 miles
Clouds Mostly Cloudy 2800 ft
Mostly Cloudy 3300 ft
Overcast 6000 ft
Windchill 47 °F
Dew Point 42 °F
Humidity 84%
Rainfall 0.04 in
Snow Depth Not available.
UV 2 out of 12
Pollen 9.90 out of 12
Air Quality Not available.
Flu Activity Regional
METAR KSFF 251753Z VRB03KT 10SM BKN028 BKN033 OVC060 09/03 A2988 RMK AO2 RAB38E47 SLP120 P0000 60000 T00940028 10094 20033 50002

More Conditions Fewer Conditions

10-Day Weather Forecast

Almanac

Astronomy

Apr. 25, 2015 Rise Set
Actual Time
Civil Twilight
Nautical Twilight
Astronomical Twilight
Moon
Length of Visible Light
Length of Day
Tomorrow will be .
, % of the Moon is Illuminated

Today's Extremes

State Highs State Lows

Community

WunderPhotos

Upload Photos

1,816,765 photos uploaded!

WunderBlogs® & News

Nearby

Air Quality

  Air Quality AQ Index Pollutant
Not available.

Snow Depth

Station Depth Elevation

Earthquake Activity

City Distance Mag. Time & Date
Minimum magnitude displayed is 2.5.

Coastal Water Temperatures

Place Temperature

Stations

Nearby Weather Stations

Station Location Temp. Windchill Dew Point Humidity Wind Precip. Elev Updated Type